04PN weather

Public forecast

Using degrees Fahrenheit for public forecast. Weather courtesy of forecast.io.

Closest aviation weather report (METAR) to Strawbridge & Clothier Exton Heliport

Closest report is Brandywine Regional Airport, 3.3 nm (6.1 km) SE. Retrieved 2020/08/14 07:35 UTC (10 minutes ago):

KOQN 140735Z AUTO 04004KT 4SM BR SCT006 BKN009 OVC095 22/21 A3003 RMK AO2

Closest aviation forecast (TAF) to Strawbridge & Clothier Exton Heliport

Closest forecast is Philadelphia International Airport, 20.3 nm (37.6 km) ESE. Retrieved 2020/08/14 06:28 UTC (1 hour ago):

TAF KPHL 140521Z 1406/1512 05004KT P6SM SCT008 TEMPO 1406/1410 3SM BR BKN008 FM141000 04006KT 4SM -SHRA BR OVC008 FM141400 05008KT P6SM BKN020 FM141700 06010KT P6SM BKN035 FM142000 06010KT P6SM SCT045 FM150600 03008KT P6SM SCT250